JBU1823 KCMH-KFLL
Flight info
| Callsign | JBU1823 |
|---|---|
| Flight time | 2h 12m |
| Altitude | 38000 |
| Route | POBSE OHIOS HVQ Q147 BURGG/N0442F370 QUIWE/N0447F380 Q93 FISHO/N0444F370 Q93 GURGE/N0449F380 Q93 PRMUS CUUDA3 |
| Aircraft | A320/M-SDE3FGHIRWY/LB1 |
Departure
| Time | 2026-05-05 00:22 |
|---|---|
| Airport | John Glenn Columbus International Airport (KCMH) |
Arrival
| Time | 2026-05-05 02:35 |
|---|---|
| Airport | Fort Lauderdale Hollywood International Airport (KFLL) |
| Time | Latitude | Longitude | Altitude | Speed | Heading |
|---|---|---|---|---|---|
| 2026-05-05 00:05 | 39.99756 | -82.88016 | 825 ft | 0 kts | 274° |
| 2026-05-05 00:13 | 39.99756 | -82.88015 | 825 ft | 1 kts | 274° |
| 2026-05-05 00:13 | 39.99754 | -82.87997 | 825 ft | 3 kts | 274° |
| 2026-05-05 00:14 | 39.99753 | -82.87971 | 825 ft | 3 kts | 274° |
| 2026-05-05 00:14 | 39.99751 | -82.87945 | 825 ft | 3 kts | 274° |
| 2026-05-05 00:14 | 39.99750 | -82.87919 | 825 ft | 3 kts | 274° |
| 2026-05-05 00:14 | 39.99749 | -82.87900 | 825 ft | 1 kts | 274° |
| 2026-05-05 00:15 | 39.99748 | -82.87899 | 825 ft | 0 kts | 274° |
| 2026-05-05 00:18 | 39.99748 | -82.87902 | 825 ft | 1 kts | 267° |
| 2026-05-05 00:18 | 39.99724 | -82.87911 | 825 ft | 8 kts | 176° |
| 2026-05-05 00:19 | 39.99655 | -82.87911 | 825 ft | 12 kts | 184° |
| 2026-05-05 00:19 | 39.99591 | -82.87858 | 823 ft | 14 kts | 95° |
| 2026-05-05 00:19 | 39.99572 | -82.87719 | 825 ft | 17 kts | 98° |
| 2026-05-05 00:19 | 39.99561 | -82.87548 | 825 ft | 21 kts | 94° |
| 2026-05-05 00:20 | 39.99550 | -82.87361 | 825 ft | 11 kts | 95° |
| 2026-05-05 00:20 | 39.99504 | -82.87284 | 822 ft | 13 kts | 167° |
| 2026-05-05 00:20 | 39.99404 | -82.87299 | 823 ft | 16 kts | 191° |
| 2026-05-05 00:20 | 39.99281 | -82.87320 | 825 ft | 19 kts | 186° |
| 2026-05-05 00:21 | 39.99250 | -82.87323 | 825 ft | 2 kts | 185° |
| 2026-05-05 00:21 | 39.99220 | -82.87327 | 824 ft | 6 kts | 185° |
| 2026-05-05 00:21 | 39.99165 | -82.87341 | 821 ft | 9 kts | 219° |
| 2026-05-05 00:21 | 39.99170 | -82.87451 | 824 ft | 25 kts | 275° |
| 2026-05-05 00:22 | 39.99201 | -82.88007 | 825 ft | 94 kts | 274° |
| 2026-05-05 00:22 | 39.99258 | -82.89084 | 826 ft | 142 kts | 274° |
| 2026-05-05 00:22 | 39.99330 | -82.90492 | 1101 ft | 155 kts | 271° |
| 2026-05-05 00:22 | 39.99403 | -82.91871 | 1757 ft | 152 kts | 271° |
| 2026-05-05 00:23 | 39.99473 | -82.93265 | 2188 ft | 162 kts | 270° |
| 2026-05-05 00:23 | 39.99544 | -82.94853 | 2331 ft | 191 kts | 270° |
| 2026-05-05 00:23 | 39.99625 | -82.96719 | 2544 ft | 219 kts | 270° |
| 2026-05-05 00:23 | 39.99768 | -82.98818 | 2959 ft | 245 kts | 273° |
| 2026-05-05 00:24 | 39.99951 | -83.01086 | 3739 ft | 254 kts | 267° |
| 2026-05-05 00:24 | 39.99618 | -83.03319 | 4708 ft | 251 kts | 243° |
| 2026-05-05 00:24 | 39.98508 | -83.05011 | 5760 ft | 248 kts | 219° |
| 2026-05-05 00:24 | 39.96982 | -83.06062 | 6809 ft | 252 kts | 200° |
| 2026-05-05 00:25 | 39.95190 | -83.06172 | 7668 ft | 271 kts | 174° |
| 2026-05-05 00:25 | 39.93421 | -83.05118 | 8492 ft | 289 kts | 155° |
| 2026-05-05 00:25 | 39.91706 | -83.03700 | 9298 ft | 295 kts | 154° |
| 2026-05-05 00:25 | 39.89974 | -83.02234 | 10088 ft | 300 kts | 154° |
| 2026-05-05 00:26 | 39.88152 | -83.00696 | 10392 ft | 324 kts | 153° |
| 2026-05-05 00:26 | 39.86185 | -82.99053 | 10606 ft | 347 kts | 153° |
| 2026-05-05 00:26 | 39.84078 | -82.97308 | 10768 ft | 371 kts | 153° |
| 2026-05-05 00:26 | 39.81836 | -82.95459 | 11034 ft | 389 kts | 153° |
| 2026-05-05 00:27 | 39.79530 | -82.93552 | 11610 ft | 396 kts | 152° |
| 2026-05-05 00:27 | 39.77189 | -82.91612 | 12201 ft | 402 kts | 152° |
| 2026-05-05 00:27 | 39.74814 | -82.89643 | 12809 ft | 407 kts | 152° |
| 2026-05-05 00:27 | 39.72420 | -82.87657 | 13438 ft | 410 kts | 152° |
| 2026-05-05 00:28 | 39.70000 | -82.85657 | 14078 ft | 414 kts | 152° |
| 2026-05-05 00:28 | 39.67556 | -82.83646 | 14697 ft | 418 kts | 152° |
| 2026-05-05 00:28 | 39.65091 | -82.81622 | 15300 ft | 421 kts | 152° |
| 2026-05-05 00:28 | 39.62607 | -82.79588 | 15896 ft | 424 kts | 152° |
| 2026-05-05 00:29 | 39.60100 | -82.77535 | 16502 ft | 428 kts | 151° |
| 2026-05-05 00:29 | 39.57577 | -82.75464 | 17081 ft | 431 kts | 151° |
| 2026-05-05 00:29 | 39.55033 | -82.73372 | 17644 ft | 435 kts | 151° |
| 2026-05-05 00:29 | 39.52472 | -82.71272 | 18207 ft | 437 kts | 151° |
| 2026-05-05 00:30 | 39.49886 | -82.69156 | 18743 ft | 441 kts | 151° |
| 2026-05-05 00:30 | 39.47285 | -82.67031 | 19290 ft | 443 kts | 151° |
| 2026-05-05 00:30 | 39.44668 | -82.64891 | 19816 ft | 446 kts | 150° |
| 2026-05-05 00:30 | 39.42035 | -82.62740 | 20323 ft | 449 kts | 151° |
| 2026-05-05 00:31 | 39.39385 | -82.60579 | 20783 ft | 451 kts | 150° |
| 2026-05-05 00:31 | 39.36718 | -82.58408 | 21223 ft | 454 kts | 150° |
| 2026-05-05 00:31 | 39.34041 | -82.56232 | 21641 ft | 456 kts | 151° |
| 2026-05-05 00:31 | 39.31348 | -82.54047 | 22028 ft | 459 kts | 151° |
| 2026-05-05 00:32 | 39.28640 | -82.51848 | 22418 ft | 461 kts | 150° |
| 2026-05-05 00:32 | 39.25921 | -82.49641 | 22778 ft | 463 kts | 150° |
| 2026-05-05 00:32 | 39.23186 | -82.47424 | 23151 ft | 465 kts | 150° |
| 2026-05-05 00:32 | 39.20437 | -82.45200 | 23512 ft | 467 kts | 150° |
| 2026-05-05 00:33 | 39.17679 | -82.42968 | 23862 ft | 469 kts | 150° |
| 2026-05-05 00:33 | 39.14908 | -82.40729 | 24198 ft | 471 kts | 150° |
| 2026-05-05 00:33 | 39.12123 | -82.38482 | 24526 ft | 474 kts | 150° |
| 2026-05-05 00:33 | 39.09324 | -82.36224 | 24843 ft | 476 kts | 150° |
| 2026-05-05 00:34 | 39.06512 | -82.33958 | 25153 ft | 478 kts | 151° |
| 2026-05-05 00:34 | 39.03720 | -82.31713 | 25442 ft | 481 kts | 151° |
| 2026-05-05 00:34 | 39.00841 | -82.29398 | 25735 ft | 483 kts | 151° |
| 2026-05-05 00:34 | 38.98022 | -82.27135 | 26015 ft | 485 kts | 151° |
| 2026-05-05 00:35 | 38.95154 | -82.24830 | 26281 ft | 487 kts | 151° |
| 2026-05-05 00:35 | 38.92281 | -82.22520 | 26640 ft | 487 kts | 151° |
| 2026-05-05 00:35 | 38.89411 | -82.20214 | 27026 ft | 486 kts | 151° |
| 2026-05-05 00:35 | 38.86541 | -82.17911 | 27399 ft | 486 kts | 151° |
| 2026-05-05 00:36 | 38.83673 | -82.15614 | 27762 ft | 486 kts | 151° |
| 2026-05-05 00:36 | 38.80804 | -82.13320 | 28130 ft | 486 kts | 151° |
| 2026-05-05 00:36 | 38.77934 | -82.11032 | 28497 ft | 486 kts | 151° |
| 2026-05-05 00:36 | 38.75064 | -82.08749 | 28870 ft | 486 kts | 152° |
| 2026-05-05 00:37 | 38.72191 | -82.06465 | 29227 ft | 486 kts | 152° |
| 2026-05-05 00:37 | 38.69319 | -82.04177 | 29588 ft | 486 kts | 152° |
| 2026-05-05 00:37 | 38.66447 | -82.01887 | 29952 ft | 486 kts | 152° |
| 2026-05-05 00:37 | 38.63575 | -81.99604 | 30315 ft | 486 kts | 152° |
| 2026-05-05 00:38 | 38.60701 | -81.97322 | 30671 ft | 486 kts | 152° |
| 2026-05-05 00:38 | 38.57825 | -81.95041 | 31031 ft | 486 kts | 152° |
| 2026-05-05 00:38 | 38.54950 | -81.92761 | 31416 ft | 486 kts | 152° |
| 2026-05-05 00:38 | 38.53009 | -81.91224 | 31683 ft | 485 kts | 152° |
| 2026-05-05 00:39 | 38.50140 | -81.88960 | 32075 ft | 484 kts | 152° |
| 2026-05-05 00:39 | 38.47275 | -81.86701 | 32458 ft | 484 kts | 152° |
| 2026-05-05 00:39 | 38.44418 | -81.84448 | 32825 ft | 483 kts | 152° |
| 2026-05-05 00:39 | 38.41562 | -81.82197 | 33178 ft | 483 kts | 152° |
| 2026-05-05 00:40 | 38.38657 | -81.80079 | 33545 ft | 478 kts | 159° |
| 2026-05-05 00:40 | 38.35588 | -81.78525 | 33919 ft | 472 kts | 167° |
| 2026-05-05 00:40 | 38.32415 | -81.77589 | 34291 ft | 465 kts | 176° |
| 2026-05-05 00:40 | 38.29258 | -81.77274 | 34646 ft | 458 kts | 185° |
| 2026-05-05 00:41 | 38.26088 | -81.77424 | 34997 ft | 456 kts | 187° |
| 2026-05-05 00:41 | 38.22926 | -81.77599 | 35333 ft | 455 kts | 187° |
| 2026-05-05 00:41 | 38.19766 | -81.77761 | 35653 ft | 454 kts | 187° |
| 2026-05-05 00:41 | 38.16608 | -81.77914 | 35977 ft | 454 kts | 187° |
| 2026-05-05 00:42 | 38.13457 | -81.78065 | 36292 ft | 453 kts | 187° |
| 2026-05-05 00:42 | 38.10310 | -81.78216 | 36589 ft | 452 kts | 187° |
| 2026-05-05 00:42 | 38.07169 | -81.78365 | 36898 ft | 451 kts | 187° |
| 2026-05-05 00:42 | 38.04042 | -81.78515 | 37236 ft | 448 kts | 187° |
| 2026-05-05 00:43 | 38.00938 | -81.78663 | 37589 ft | 445 kts | 186° |
| 2026-05-05 00:43 | 37.97850 | -81.78810 | 37878 ft | 444 kts | 187° |
| 2026-05-05 00:43 | 37.94763 | -81.78958 | 37939 ft | 445 kts | 186° |
| 2026-05-05 00:44 | 37.88562 | -81.79268 | 37948 ft | 446 kts | 187° |
| 2026-05-05 00:44 | 37.82356 | -81.79587 | 37962 ft | 447 kts | 186° |
| 2026-05-05 00:45 | 37.76145 | -81.79895 | 37959 ft | 447 kts | 186° |
| 2026-05-05 00:45 | 37.69936 | -81.80189 | 37975 ft | 447 kts | 186° |
| 2026-05-05 00:46 | 37.63719 | -81.80474 | 37982 ft | 447 kts | 187° |
| 2026-05-05 00:46 | 37.57493 | -81.80778 | 37992 ft | 448 kts | 187° |
| 2026-05-05 00:47 | 37.51268 | -81.81085 | 38003 ft | 448 kts | 187° |
| 2026-05-05 00:47 | 37.45036 | -81.81382 | 38013 ft | 448 kts | 187° |
| 2026-05-05 00:48 | 37.38799 | -81.81677 | 38025 ft | 449 kts | 187° |
| 2026-05-05 00:48 | 37.32561 | -81.81983 | 38030 ft | 449 kts | 187° |
| 2026-05-05 00:49 | 37.26359 | -81.82283 | 38039 ft | 449 kts | 187° |
| 2026-05-05 00:49 | 37.20071 | -81.82587 | 38044 ft | 449 kts | 187° |
| 2026-05-05 00:50 | 37.13828 | -81.82877 | 38050 ft | 449 kts | 187° |
| 2026-05-05 00:50 | 37.07590 | -81.83184 | 38054 ft | 449 kts | 187° |
| 2026-05-05 00:51 | 37.01350 | -81.83479 | 38056 ft | 449 kts | 187° |
| 2026-05-05 00:51 | 36.95113 | -81.83788 | 38057 ft | 449 kts | 187° |
| 2026-05-05 00:52 | 36.88876 | -81.84075 | 38058 ft | 449 kts | 187° |
| 2026-05-05 00:52 | 36.82678 | -81.84363 | 38055 ft | 448 kts | 187° |
| 2026-05-05 00:53 | 36.76447 | -81.84671 | 38050 ft | 448 kts | 187° |
| 2026-05-05 00:53 | 36.70216 | -81.84963 | 38047 ft | 448 kts | 187° |
| 2026-05-05 00:54 | 36.63980 | -81.85251 | 38049 ft | 448 kts | 188° |
| 2026-05-05 00:54 | 36.57746 | -81.85553 | 38044 ft | 448 kts | 188° |
| 2026-05-05 00:55 | 36.51519 | -81.85844 | 38041 ft | 448 kts | 187° |
| 2026-05-05 00:55 | 36.45294 | -81.86130 | 38040 ft | 448 kts | 188° |
| 2026-05-05 00:56 | 36.39065 | -81.86426 | 38042 ft | 448 kts | 188° |
| 2026-05-05 00:56 | 36.32840 | -81.86725 | 38050 ft | 448 kts | 188° |
| 2026-05-05 00:57 | 36.26613 | -81.87021 | 38056 ft | 448 kts | 188° |
| 2026-05-05 00:57 | 36.20385 | -81.87307 | 38065 ft | 448 kts | 188° |
| 2026-05-05 00:58 | 36.14160 | -81.87602 | 38068 ft | 448 kts | 188° |
| 2026-05-05 00:58 | 36.07926 | -81.87890 | 38071 ft | 448 kts | 188° |
| 2026-05-05 00:59 | 36.01684 | -81.88170 | 38072 ft | 449 kts | 188° |
| 2026-05-05 00:59 | 35.95442 | -81.88462 | 38081 ft | 449 kts | 188° |
| 2026-05-05 01:00 | 35.89199 | -81.88757 | 38077 ft | 449 kts | 188° |
| 2026-05-05 01:00 | 35.82952 | -81.89038 | 38075 ft | 449 kts | 188° |
| 2026-05-05 01:01 | 35.76715 | -81.89326 | 38074 ft | 448 kts | 188° |
| 2026-05-05 01:01 | 35.70477 | -81.89617 | 38075 ft | 449 kts | 188° |
| 2026-05-05 01:02 | 35.64238 | -81.89900 | 38074 ft | 448 kts | 188° |
| 2026-05-05 01:02 | 35.58007 | -81.90191 | 38075 ft | 449 kts | 188° |
| 2026-05-05 01:03 | 35.51816 | -81.90485 | 38077 ft | 448 kts | 188° |
| 2026-05-05 01:03 | 35.45585 | -81.90775 | 38074 ft | 448 kts | 188° |
| 2026-05-05 01:04 | 35.39350 | -81.91049 | 38074 ft | 448 kts | 188° |
| 2026-05-05 01:04 | 35.30014 | -81.91477 | 38071 ft | 447 kts | 188° |
| 2026-05-05 01:05 | 35.23794 | -81.91760 | 38070 ft | 447 kts | 188° |
| 2026-05-05 01:05 | 35.17580 | -81.92039 | 38069 ft | 447 kts | 188° |
| 2026-05-05 01:06 | 35.11372 | -81.92325 | 38063 ft | 446 kts | 188° |
| 2026-05-05 01:06 | 35.05158 | -81.92514 | 38058 ft | 450 kts | 182° |
| 2026-05-05 01:07 | 34.98969 | -81.90974 | 38055 ft | 462 kts | 167° |
| 2026-05-05 01:07 | 34.92858 | -81.88524 | 38050 ft | 462 kts | 167° |
| 2026-05-05 01:08 | 34.86742 | -81.86091 | 38051 ft | 463 kts | 168° |
| 2026-05-05 01:08 | 34.80617 | -81.83671 | 38057 ft | 463 kts | 168° |
| 2026-05-05 01:09 | 34.74485 | -81.81246 | 38067 ft | 464 kts | 167° |
| 2026-05-05 01:09 | 34.68350 | -81.78823 | 38077 ft | 464 kts | 168° |
| 2026-05-05 01:10 | 34.62214 | -81.76406 | 38084 ft | 464 kts | 168° |
| 2026-05-05 01:10 | 34.56071 | -81.73988 | 38088 ft | 464 kts | 168° |
| 2026-05-05 01:11 | 34.49928 | -81.71572 | 38088 ft | 464 kts | 168° |
| 2026-05-05 01:11 | 34.43782 | -81.69156 | 38089 ft | 465 kts | 168° |
| 2026-05-05 01:12 | 34.37624 | -81.66745 | 38093 ft | 465 kts | 168° |
| 2026-05-05 01:12 | 34.31472 | -81.64343 | 38097 ft | 464 kts | 168° |
| 2026-05-05 01:13 | 34.25326 | -81.61949 | 38101 ft | 464 kts | 168° |
| 2026-05-05 01:13 | 34.19175 | -81.59548 | 38107 ft | 465 kts | 168° |
| 2026-05-05 01:14 | 34.13011 | -81.57137 | 38105 ft | 466 kts | 168° |
| 2026-05-05 01:14 | 34.06841 | -81.54743 | 38105 ft | 465 kts | 168° |
| 2026-05-05 01:15 | 34.00676 | -81.52360 | 38105 ft | 466 kts | 168° |
| 2026-05-05 01:15 | 33.94476 | -81.50193 | 38105 ft | 459 kts | 176° |
| 2026-05-05 01:16 | 33.88177 | -81.49271 | 38103 ft | 455 kts | 180° |
| 2026-05-05 01:16 | 33.81880 | -81.48426 | 38103 ft | 455 kts | 180° |
| 2026-05-05 01:17 | 33.75587 | -81.47579 | 38106 ft | 455 kts | 180° |
| 2026-05-05 01:17 | 33.69289 | -81.46729 | 38103 ft | 455 kts | 180° |
| 2026-05-05 01:18 | 33.62996 | -81.45884 | 38111 ft | 455 kts | 180° |
| 2026-05-05 01:18 | 33.56706 | -81.45044 | 38105 ft | 454 kts | 180° |
| 2026-05-05 01:19 | 33.50424 | -81.44203 | 38104 ft | 454 kts | 180° |
| 2026-05-05 01:19 | 33.44141 | -81.43366 | 38106 ft | 454 kts | 180° |
| 2026-05-05 01:20 | 33.37865 | -81.42531 | 38107 ft | 453 kts | 180° |
| 2026-05-05 01:20 | 33.31638 | -81.41698 | 38109 ft | 453 kts | 181° |
| 2026-05-05 01:21 | 33.25383 | -81.40560 | 38110 ft | 458 kts | 175° |
| 2026-05-05 01:21 | 33.19149 | -81.38964 | 38110 ft | 458 kts | 175° |
| 2026-05-05 01:22 | 33.13925 | -81.37636 | 38110 ft | 458 kts | 175° |
| 2026-05-05 01:22 | 33.06682 | -81.35802 | 38110 ft | 458 kts | 175° |
| 2026-05-05 01:23 | 33.00447 | -81.34229 | 38111 ft | 458 kts | 175° |
| 2026-05-05 01:23 | 32.94222 | -81.32653 | 38109 ft | 458 kts | 175° |
| 2026-05-05 01:24 | 32.89003 | -81.31341 | 38109 ft | 457 kts | 176° |
| 2026-05-05 01:24 | 32.82768 | -81.29776 | 38109 ft | 458 kts | 176° |
| 2026-05-05 01:25 | 32.76534 | -81.28206 | 38116 ft | 458 kts | 176° |
| 2026-05-05 01:25 | 32.70306 | -81.26636 | 38120 ft | 458 kts | 176° |
| 2026-05-05 01:26 | 32.64077 | -81.25075 | 38121 ft | 458 kts | 176° |
| 2026-05-05 01:26 | 32.57848 | -81.23518 | 38121 ft | 457 kts | 176° |
| 2026-05-05 01:27 | 32.51661 | -81.21973 | 38121 ft | 458 kts | 176° |
| 2026-05-05 01:27 | 32.45450 | -81.21282 | 38119 ft | 441 kts | 191° |
| 2026-05-05 01:28 | 32.39329 | -81.21602 | 38120 ft | 440 kts | 191° |
| 2026-05-05 01:28 | 32.33209 | -81.21919 | 38121 ft | 440 kts | 191° |
| 2026-05-05 01:29 | 32.27083 | -81.22213 | 38123 ft | 441 kts | 191° |
| 2026-05-05 01:29 | 32.20950 | -81.22508 | 38128 ft | 441 kts | 191° |
| 2026-05-05 01:30 | 32.14810 | -81.22812 | 38130 ft | 441 kts | 191° |
| 2026-05-05 01:30 | 32.08673 | -81.23123 | 38131 ft | 442 kts | 191° |
| 2026-05-05 01:31 | 32.02533 | -81.23437 | 38127 ft | 441 kts | 191° |
| 2026-05-05 01:31 | 31.96387 | -81.23681 | 38117 ft | 446 kts | 186° |
| 2026-05-05 01:32 | 31.90152 | -81.22971 | 38114 ft | 451 kts | 182° |
| 2026-05-05 01:32 | 31.83923 | -81.22187 | 38111 ft | 450 kts | 182° |
| 2026-05-05 01:33 | 31.77699 | -81.21410 | 38114 ft | 450 kts | 182° |
| 2026-05-05 01:33 | 31.71480 | -81.20625 | 38117 ft | 449 kts | 182° |
| 2026-05-05 01:34 | 31.65266 | -81.19847 | 38120 ft | 449 kts | 183° |
| 2026-05-05 01:34 | 31.59061 | -81.19086 | 38124 ft | 448 kts | 183° |
| 2026-05-05 01:35 | 31.52856 | -81.18323 | 38126 ft | 448 kts | 183° |
| 2026-05-05 01:35 | 31.46656 | -81.17547 | 38129 ft | 448 kts | 183° |
| 2026-05-05 01:36 | 31.40465 | -81.16771 | 38133 ft | 447 kts | 183° |
| 2026-05-05 01:36 | 31.34277 | -81.16009 | 38129 ft | 447 kts | 183° |
| 2026-05-05 01:37 | 31.28133 | -81.15270 | 38129 ft | 447 kts | 183° |
| 2026-05-05 01:37 | 31.21955 | -81.14529 | 38128 ft | 446 kts | 183° |
| 2026-05-05 01:38 | 31.15775 | -81.13783 | 38129 ft | 446 kts | 183° |
| 2026-05-05 01:38 | 31.09594 | -81.13031 | 38129 ft | 446 kts | 183° |
| 2026-05-05 01:39 | 31.03377 | -81.12273 | 38126 ft | 446 kts | 182° |
| 2026-05-05 01:39 | 30.97246 | -81.11540 | 38127 ft | 446 kts | 183° |
| 2026-05-05 01:40 | 30.91074 | -81.10799 | 38131 ft | 445 kts | 183° |
| 2026-05-05 01:40 | 30.84909 | -81.10065 | 38135 ft | 445 kts | 183° |
| 2026-05-05 01:41 | 30.78741 | -81.09326 | 38147 ft | 445 kts | 182° |
| 2026-05-05 01:41 | 30.72580 | -81.08586 | 38134 ft | 445 kts | 182° |
| 2026-05-05 01:42 | 30.66420 | -81.07849 | 38134 ft | 445 kts | 182° |
| 2026-05-05 01:42 | 30.60301 | -81.07534 | 38135 ft | 434 kts | 191° |
| 2026-05-05 01:43 | 30.54262 | -81.07903 | 38143 ft | 435 kts | 191° |
| 2026-05-05 01:43 | 30.48222 | -81.08266 | 38135 ft | 435 kts | 191° |
| 2026-05-05 01:44 | 30.42186 | -81.08627 | 38135 ft | 434 kts | 191° |
| 2026-05-05 01:44 | 30.36150 | -81.08997 | 38135 ft | 434 kts | 191° |
| 2026-05-05 01:45 | 30.30111 | -81.09361 | 38142 ft | 434 kts | 191° |
| 2026-05-05 01:45 | 30.24081 | -81.09719 | 38133 ft | 434 kts | 191° |
| 2026-05-05 01:46 | 30.18013 | -81.09776 | 38134 ft | 440 kts | 186° |
| 2026-05-05 01:46 | 30.11969 | -81.09988 | 38141 ft | 431 kts | 193° |
| 2026-05-05 01:47 | 30.06006 | -81.10683 | 38138 ft | 431 kts | 193° |
| 2026-05-05 01:47 | 30.00006 | -81.11226 | 38136 ft | 434 kts | 192° |
| 2026-05-05 01:48 | 29.93965 | -81.11578 | 38135 ft | 435 kts | 191° |
| 2026-05-05 01:48 | 29.87909 | -81.11890 | 38133 ft | 436 kts | 191° |
| 2026-05-05 01:49 | 29.81794 | -81.11647 | 38130 ft | 450 kts | 177° |
| 2026-05-05 01:49 | 29.78736 | -81.10698 | 38130 ft | 462 kts | 167° |
| 2026-05-05 01:49 | 29.75749 | -81.09265 | 38130 ft | 466 kts | 165° |
| 2026-05-05 01:50 | 29.69795 | -81.06328 | 38127 ft | 466 kts | 165° |
| 2026-05-05 01:50 | 29.63834 | -81.03405 | 38124 ft | 466 kts | 165° |
| 2026-05-05 01:51 | 29.57870 | -81.00497 | 38123 ft | 466 kts | 165° |
| 2026-05-05 01:51 | 29.51902 | -80.97594 | 38122 ft | 466 kts | 165° |
| 2026-05-05 01:52 | 29.45934 | -80.94682 | 38117 ft | 466 kts | 165° |
| 2026-05-05 01:52 | 29.39970 | -80.91768 | 38114 ft | 466 kts | 165° |
| 2026-05-05 01:53 | 29.33996 | -80.88851 | 38106 ft | 466 kts | 165° |
| 2026-05-05 01:53 | 29.28018 | -80.85948 | 38110 ft | 467 kts | 165° |
| 2026-05-05 01:54 | 29.22040 | -80.83054 | 38110 ft | 467 kts | 165° |
| 2026-05-05 01:54 | 29.16056 | -80.80154 | 38110 ft | 467 kts | 165° |
| 2026-05-05 01:55 | 29.10073 | -80.77257 | 38115 ft | 467 kts | 165° |
| 2026-05-05 01:55 | 29.04091 | -80.74355 | 38117 ft | 467 kts | 165° |
| 2026-05-05 01:56 | 28.98107 | -80.71463 | 38114 ft | 467 kts | 165° |
| 2026-05-05 01:56 | 28.92104 | -80.68652 | 38111 ft | 466 kts | 167° |
| 2026-05-05 01:57 | 28.86067 | -80.65992 | 38105 ft | 465 kts | 167° |
| 2026-05-05 01:57 | 28.80027 | -80.63351 | 38100 ft | 465 kts | 167° |
| 2026-05-05 01:58 | 28.73993 | -80.60667 | 38097 ft | 466 kts | 167° |
| 2026-05-05 01:58 | 28.67960 | -80.57963 | 38093 ft | 466 kts | 167° |
| 2026-05-05 01:59 | 28.61930 | -80.55268 | 38092 ft | 466 kts | 167° |
| 2026-05-05 01:59 | 28.55976 | -80.52624 | 38087 ft | 465 kts | 167° |
| 2026-05-05 02:00 | 28.49900 | -80.49930 | 38079 ft | 466 kts | 167° |
| 2026-05-05 02:00 | 28.43868 | -80.47253 | 38076 ft | 466 kts | 167° |
| 2026-05-05 02:01 | 28.37830 | -80.44578 | 38076 ft | 466 kts | 167° |
| 2026-05-05 02:01 | 28.31794 | -80.41905 | 38075 ft | 466 kts | 167° |
| 2026-05-05 02:02 | 28.25761 | -80.39237 | 38082 ft | 465 kts | 167° |
| 2026-05-05 02:02 | 28.19734 | -80.36573 | 38084 ft | 465 kts | 167° |
| 2026-05-05 02:03 | 28.13711 | -80.33914 | 38089 ft | 464 kts | 167° |
| 2026-05-05 02:03 | 28.07695 | -80.31280 | 38089 ft | 463 kts | 168° |
| 2026-05-05 02:04 | 28.01638 | -80.28866 | 38094 ft | 460 kts | 170° |
| 2026-05-05 02:04 | 27.95562 | -80.26578 | 38095 ft | 460 kts | 170° |
| 2026-05-05 02:05 | 27.89486 | -80.24253 | 38094 ft | 461 kts | 170° |
| 2026-05-05 02:05 | 27.83412 | -80.21885 | 38096 ft | 462 kts | 169° |
| 2026-05-05 02:06 | 27.77339 | -80.19512 | 37951 ft | 462 kts | 169° |
| 2026-05-05 02:06 | 27.74309 | -80.18326 | 37705 ft | 460 kts | 169° |
| 2026-05-05 02:06 | 27.72307 | -80.17543 | 37472 ft | 459 kts | 169° |
| 2026-05-05 02:07 | 27.69300 | -80.16367 | 36800 ft | 455 kts | 174° |
| 2026-05-05 02:07 | 27.66303 | -80.15201 | 36053 ft | 456 kts | 169° |
| 2026-05-05 02:07 | 27.63298 | -80.14040 | 35238 ft | 458 kts | 170° |
| 2026-05-05 02:07 | 27.60280 | -80.12868 | 34429 ft | 460 kts | 169° |
| 2026-05-05 02:08 | 27.56282 | -80.11256 | 33272 ft | 463 kts | 168° |
| 2026-05-05 02:08 | 27.54233 | -80.10409 | 32632 ft | 466 kts | 168° |
| 2026-05-05 02:08 | 27.51180 | -80.09131 | 31664 ft | 470 kts | 167° |
| 2026-05-05 02:08 | 27.48108 | -80.07839 | 30691 ft | 473 kts | 167° |
| 2026-05-05 02:09 | 27.45007 | -80.06541 | 29542 ft | 479 kts | 167° |
| 2026-05-05 02:09 | 27.41862 | -80.05236 | 28348 ft | 484 kts | 166° |
| 2026-05-05 02:09 | 27.38735 | -80.03955 | 27127 ft | 487 kts | 167° |
| 2026-05-05 02:09 | 27.35475 | -80.02749 | 26249 ft | 481 kts | 169° |
| 2026-05-05 02:10 | 27.32334 | -80.01733 | 26093 ft | 459 kts | 171° |
| 2026-05-05 02:10 | 27.29306 | -80.00837 | 25964 ft | 441 kts | 172° |
| 2026-05-05 02:10 | 27.26379 | -80.00009 | 25713 ft | 427 kts | 173° |
| 2026-05-05 02:10 | 27.23527 | -79.99169 | 25463 ft | 422 kts | 171° |
| 2026-05-05 02:11 | 27.20726 | -79.98245 | 25168 ft | 419 kts | 169° |
| 2026-05-05 02:11 | 27.17953 | -79.97253 | 24609 ft | 417 kts | 168° |
| 2026-05-05 02:11 | 27.15240 | -79.96239 | 24050 ft | 416 kts | 168° |
| 2026-05-05 02:11 | 27.12512 | -79.95212 | 23608 ft | 411 kts | 168° |
| 2026-05-05 02:12 | 27.09800 | -79.94200 | 23037 ft | 409 kts | 168° |
| 2026-05-05 02:12 | 27.04448 | -79.92203 | 22140 ft | 403 kts | 167° |
| 2026-05-05 02:12 | 27.01810 | -79.91154 | 21640 ft | 402 kts | 166° |
| 2026-05-05 02:13 | 26.99204 | -79.90085 | 20937 ft | 395 kts | 166° |
| 2026-05-05 02:13 | 26.96647 | -79.89025 | 20193 ft | 387 kts | 166° |
| 2026-05-05 02:13 | 26.94128 | -79.87986 | 19725 ft | 380 kts | 166° |
| 2026-05-05 02:13 | 26.91661 | -79.86978 | 19147 ft | 376 kts | 166° |
| 2026-05-05 02:14 | 26.89210 | -79.85984 | 18676 ft | 373 kts | 166° |
| 2026-05-05 02:14 | 26.86775 | -79.85006 | 18190 ft | 371 kts | 166° |
| 2026-05-05 02:14 | 26.84347 | -79.84037 | 17644 ft | 370 kts | 166° |
| 2026-05-05 02:14 | 26.81924 | -79.83071 | 17150 ft | 369 kts | 166° |
| 2026-05-05 02:15 | 26.79516 | -79.82109 | 16685 ft | 365 kts | 165° |
| 2026-05-05 02:15 | 26.77139 | -79.81153 | 16176 ft | 363 kts | 165° |
| 2026-05-05 02:15 | 26.74782 | -79.80200 | 15786 ft | 358 kts | 165° |
| 2026-05-05 02:15 | 26.72424 | -79.79338 | 15210 ft | 351 kts | 172° |
| 2026-05-05 02:16 | 26.70055 | -79.79027 | 14685 ft | 337 kts | 185° |
| 2026-05-05 02:16 | 26.67792 | -79.79306 | 14300 ft | 320 kts | 197° |
| 2026-05-05 02:16 | 26.65711 | -79.80043 | 13805 ft | 310 kts | 205° |
| 2026-05-05 02:16 | 26.63700 | -79.80872 | 13385 ft | 307 kts | 204° |
| 2026-05-05 02:17 | 26.61700 | -79.81685 | 12967 ft | 305 kts | 204° |
| 2026-05-05 02:17 | 26.59710 | -79.82495 | 12550 ft | 304 kts | 204° |
| 2026-05-05 02:17 | 26.57725 | -79.83303 | 12131 ft | 303 kts | 203° |
| 2026-05-05 02:17 | 26.55748 | -79.84105 | 11709 ft | 302 kts | 203° |
| 2026-05-05 02:18 | 26.53805 | -79.84936 | 11463 ft | 294 kts | 205° |
| 2026-05-05 02:18 | 26.51936 | -79.85799 | 11168 ft | 289 kts | 206° |
| 2026-05-05 02:18 | 26.50087 | -79.86681 | 10778 ft | 289 kts | 206° |
| 2026-05-05 02:18 | 26.48243 | -79.87566 | 10374 ft | 289 kts | 206° |
| 2026-05-05 02:19 | 26.46394 | -79.88452 | 9966 ft | 289 kts | 205° |
| 2026-05-05 02:19 | 26.44544 | -79.89331 | 9557 ft | 289 kts | 205° |
| 2026-05-05 02:19 | 26.42727 | -79.90189 | 9219 ft | 284 kts | 205° |
| 2026-05-05 02:19 | 26.40910 | -79.91045 | 8662 ft | 283 kts | 204° |
| 2026-05-05 02:20 | 26.39083 | -79.91902 | 8193 ft | 285 kts | 204° |
| 2026-05-05 02:20 | 26.37328 | -79.92897 | 8025 ft | 283 kts | 211° |
| 2026-05-05 02:20 | 26.35623 | -79.93992 | 8027 ft | 283 kts | 211° |
| 2026-05-05 02:20 | 26.33916 | -79.95090 | 8028 ft | 283 kts | 211° |
| 2026-05-05 02:21 | 26.32209 | -79.96191 | 8028 ft | 283 kts | 211° |
| 2026-05-05 02:21 | 26.30504 | -79.97292 | 8028 ft | 283 kts | 211° |
| 2026-05-05 02:21 | 26.28796 | -79.98391 | 8029 ft | 283 kts | 211° |
| 2026-05-05 02:21 | 26.27089 | -79.99485 | 7976 ft | 282 kts | 211° |
| 2026-05-05 02:22 | 26.25401 | -80.00564 | 7490 ft | 279 kts | 211° |
| 2026-05-05 02:22 | 26.23723 | -80.01639 | 6944 ft | 277 kts | 211° |
| 2026-05-05 02:22 | 26.22054 | -80.02710 | 6402 ft | 276 kts | 210° |
| 2026-05-05 02:22 | 26.20393 | -80.03778 | 5884 ft | 274 kts | 211° |
| 2026-05-05 02:23 | 26.18885 | -80.05051 | 5354 ft | 272 kts | 225° |
| 2026-05-05 02:23 | 26.17744 | -80.06715 | 4831 ft | 270 kts | 241° |
| 2026-05-05 02:23 | 26.17028 | -80.08647 | 4443 ft | 270 kts | 251° |
| 2026-05-05 02:23 | 26.16440 | -80.10627 | 4115 ft | 269 kts | 250° |
| 2026-05-05 02:24 | 26.15847 | -80.12595 | 4010 ft | 270 kts | 250° |
| 2026-05-05 02:24 | 26.15258 | -80.14603 | 4017 ft | 275 kts | 255° |
| 2026-05-05 02:24 | 26.15019 | -80.16696 | 4002 ft | 269 kts | 270° |
| 2026-05-05 02:24 | 26.15043 | -80.18762 | 4022 ft | 265 kts | 270° |
| 2026-05-05 02:25 | 26.15055 | -80.20779 | 4013 ft | 255 kts | 270° |
| 2026-05-05 02:25 | 26.15066 | -80.22755 | 4018 ft | 254 kts | 270° |
| 2026-05-05 02:25 | 26.15076 | -80.24731 | 4019 ft | 256 kts | 270° |
| 2026-05-05 02:25 | 26.15089 | -80.26710 | 4016 ft | 253 kts | 271° |
| 2026-05-05 02:26 | 26.15111 | -80.28630 | 4020 ft | 244 kts | 270° |
| 2026-05-05 02:26 | 26.15121 | -80.30476 | 4018 ft | 235 kts | 270° |
| 2026-05-05 02:26 | 26.15114 | -80.32288 | 3980 ft | 232 kts | 269° |
| 2026-05-05 02:26 | 26.15089 | -80.34073 | 3655 ft | 231 kts | 268° |
| 2026-05-05 02:27 | 26.15054 | -80.35865 | 3320 ft | 232 kts | 269° |
| 2026-05-05 02:27 | 26.15022 | -80.37660 | 3050 ft | 232 kts | 269° |
| 2026-05-05 02:27 | 26.14988 | -80.39464 | 3013 ft | 234 kts | 269° |
| 2026-05-05 02:27 | 26.14899 | -80.41279 | 3015 ft | 235 kts | 257° |
| 2026-05-05 02:28 | 26.14165 | -80.42864 | 3016 ft | 232 kts | 223° |
| 2026-05-05 02:28 | 26.12807 | -80.43741 | 3022 ft | 226 kts | 191° |
| 2026-05-05 02:28 | 26.11284 | -80.44030 | 3022 ft | 225 kts | 184° |
| 2026-05-05 02:28 | 26.09710 | -80.44223 | 3019 ft | 225 kts | 183° |
| 2026-05-05 02:29 | 26.08195 | -80.44164 | 3018 ft | 219 kts | 156° |
| 2026-05-05 02:29 | 26.07120 | -80.43160 | 3037 ft | 194 kts | 114° |
| 2026-05-05 02:29 | 26.07072 | -80.41751 | 3026 ft | 185 kts | 67° |
| 2026-05-05 02:29 | 26.07735 | -80.40534 | 3016 ft | 183 kts | 64° |
| 2026-05-05 02:30 | 26.07868 | -80.39174 | 3020 ft | 180 kts | 99° |
| 2026-05-05 02:30 | 26.07764 | -80.37792 | 3018 ft | 180 kts | 89° |
| 2026-05-05 02:30 | 26.07776 | -80.36420 | 3012 ft | 171 kts | 90° |
| 2026-05-05 02:30 | 26.07779 | -80.35133 | 3014 ft | 164 kts | 90° |
| 2026-05-05 02:31 | 26.07776 | -80.33884 | 2957 ft | 157 kts | 90° |
| 2026-05-05 02:31 | 26.07772 | -80.32738 | 2826 ft | 143 kts | 90° |
| 2026-05-05 02:31 | 26.07768 | -80.31650 | 2657 ft | 139 kts | 90° |
| 2026-05-05 02:31 | 26.07763 | -80.30588 | 2482 ft | 138 kts | 89° |
| 2026-05-05 02:32 | 26.07758 | -80.29521 | 2309 ft | 137 kts | 89° |
| 2026-05-05 02:32 | 26.07754 | -80.28460 | 2121 ft | 137 kts | 89° |
| 2026-05-05 02:32 | 26.07749 | -80.27401 | 1939 ft | 137 kts | 89° |
| 2026-05-05 02:32 | 26.07744 | -80.26341 | 1754 ft | 137 kts | 89° |
| 2026-05-05 02:33 | 26.07739 | -80.25280 | 1575 ft | 137 kts | 89° |
| 2026-05-05 02:33 | 26.07733 | -80.24219 | 1389 ft | 137 kts | 89° |
| 2026-05-05 02:33 | 26.07719 | -80.23158 | 1239 ft | 137 kts | 89° |
| 2026-05-05 02:33 | 26.07706 | -80.22103 | 1158 ft | 136 kts | 89° |
| 2026-05-05 02:34 | 26.07707 | -80.21054 | 933 ft | 135 kts | 88° |
| 2026-05-05 02:34 | 26.07695 | -80.20011 | 689 ft | 135 kts | 89° |
| 2026-05-05 02:34 | 26.07698 | -80.18966 | 513 ft | 135 kts | 88° |
| 2026-05-05 02:34 | 26.07692 | -80.17919 | 308 ft | 137 kts | 90° |
| 2026-05-05 02:35 | 26.07693 | -80.16867 | 125 ft | 136 kts | 89° |
| 2026-05-05 02:35 | 26.07693 | -80.15839 | 20 ft | 123 kts | 91° |
| 2026-05-05 02:35 | 26.07688 | -80.15146 | 11 ft | 44 kts | 90° |
| 2026-05-05 02:35 | 26.07680 | -80.14777 | 18 ft | 49 kts | 94° |
| 2026-05-05 02:36 | 26.07601 | -80.14538 | 19 ft | 14 kts | 120° |
| 2026-05-05 02:36 | 26.07590 | -80.14516 | 20 ft | 2 kts | 120° |
| 2026-05-05 02:36 | 26.07587 | -80.14510 | 20 ft | 0 kts | 120° |
| 2026-05-05 02:37 | 26.07584 | -80.14504 | 20 ft | 2 kts | 118° |
| 2026-05-05 02:37 | 26.07574 | -80.14481 | 20 ft | 5 kts | 113° |
| 2026-05-05 02:38 | 26.07562 | -80.14438 | 20 ft | 0 kts | 101° |